createdAt,value
2023-03-20T00:00:03.744Z,74.40
2023-03-20T00:03:07.032Z,74.40
2023-03-20T00:06:17.654Z,74.40
2023-03-20T00:09:20.774Z,74.40
2023-03-20T00:12:27.054Z,74.40
2023-03-20T00:15:33.399Z,74.50
2023-03-20T00:18:36.698Z,76.40
2023-03-20T00:21:41.220Z,76.70
2023-03-20T00:24:44.333Z,77.30
2023-03-20T00:27:48.004Z,77.60
2023-03-20T00:30:51.165Z,78.10
2023-03-20T00:33:56.160Z,78.10
2023-03-20T00:37:00.758Z,78.10
2023-03-20T00:40:04.492Z,78.40
2023-03-20T00:43:07.838Z,78.70
2023-03-20T00:46:15.172Z,78.70
2023-03-20T00:49:18.544Z,80.50
2023-03-20T00:52:24.048Z,79.70
2023-03-20T00:55:29.282Z,78.30
2023-03-20T00:58:32.850Z,78.20
2023-03-20T01:01:36.466Z,77.70
2023-03-20T01:04:42.825Z,77.50
2023-03-20T01:07:47.760Z,77.40
2023-03-20T01:10:53.368Z,77.70
2023-03-20T01:13:57.305Z,77.60
2023-03-20T01:17:00.454Z,77.40
2023-03-20T01:20:03.656Z,77.80
2023-03-20T01:23:08.215Z,77.90
2023-03-20T01:26:23.666Z,79.20
2023-03-20T01:29:28.395Z,79.60
2023-03-20T01:32:31.570Z,79.70
2023-03-20T01:35:34.988Z,80.20
2023-03-20T01:38:40.481Z,80.10
2023-03-20T01:41:45.291Z,80.60
2023-03-20T01:44:48.646Z,80.60
2023-03-20T01:47:52.505Z,80.60
2023-03-20T01:50:55.838Z,80.70
2023-03-20T01:54:03.832Z,80.80
2023-03-20T01:57:11.770Z,80.80
2023-03-20T02:00:17.043Z,81.30
2023-03-20T02:03:21.240Z,81.00
2023-03-20T02:06:26.248Z,81.00
2023-03-20T02:09:30.798Z,81.60
2023-03-20T02:12:36.051Z,81.80
2023-03-20T02:15:59.117Z,82.00
2023-03-20T02:19:02.554Z,82.90
2023-03-20T02:22:36.460Z,83.70
2023-03-20T02:26:06.779Z,84.20
2023-03-20T02:29:46.601Z,84.50
2023-03-20T02:33:35.324Z,84.70
2023-03-20T02:36:58.497Z,85.30
2023-03-20T02:40:17.163Z,85.40
2023-03-20T02:43:28.112Z,85.50
2023-03-20T02:46:40.107Z,86.00
2023-03-20T02:49:54.112Z,86.40
2023-03-20T02:53:02.446Z,86.60
2023-03-20T02:56:13.809Z,86.70
2023-03-20T02:59:25.863Z,86.50
2023-03-20T03:02:35.607Z,86.50
2023-03-20T03:05:44.012Z,86.60
2023-03-20T03:08:51.438Z,86.50
2023-03-20T03:12:02.554Z,86.70
2023-03-20T03:15:09.405Z,86.80
2023-03-20T03:18:16.982Z,87.10
2023-03-20T03:21:21.472Z,87.50
2023-03-20T03:24:40.415Z,87.50
2023-03-20T03:27:49.912Z,87.60
2023-03-20T03:30:54.183Z,87.70
2023-03-20T03:33:59.909Z,87.80
2023-03-20T03:37:07.570Z,87.70
2023-03-20T03:40:21.021Z,87.60
2023-03-20T03:43:32.480Z,87.70
2023-03-20T03:46:44.563Z,88.10
2023-03-20T03:49:52.489Z,88.10
2023-03-20T03:52:59.759Z,88.20
2023-03-20T03:56:07.147Z,88.20
2023-03-20T03:59:20.287Z,88.30
2023-03-20T04:02:25.118Z,88.60
2023-03-20T04:05:33.195Z,88.60
2023-03-20T04:08:36.680Z,89.00
2023-03-20T04:11:40.124Z,89.10
2023-03-20T04:14:44.716Z,89.00
2023-03-20T04:17:47.890Z,89.10
2023-03-20T04:20:51.999Z,89.10
2023-03-20T04:23:55.183Z,89.30
2023-03-20T04:26:58.329Z,89.70
2023-03-20T04:30:02.922Z,89.80
2023-03-20T04:33:06.799Z,89.90
2023-03-20T04:36:10.673Z,90.00
2023-03-20T04:39:13.811Z,90.10
2023-03-20T04:42:17.350Z,90.10
2023-03-20T04:45:21.906Z,90.20
2023-03-20T04:48:25.130Z,90.20
2023-03-20T04:51:28.436Z,90.20
2023-03-20T04:54:31.812Z,90.20
2023-03-20T04:57:34.997Z,90.30
2023-03-20T05:00:39.784Z,90.40
2023-03-20T05:03:43.001Z,90.50
2023-03-20T05:06:49.183Z,90.50
2023-03-20T05:09:52.363Z,90.50
2023-03-20T05:12:55.548Z,90.50
2023-03-20T05:16:00.096Z,90.50
2023-03-20T05:19:03.278Z,90.60
2023-03-20T05:22:06.427Z,90.60
2023-03-20T05:25:10.188Z,90.60
2023-03-20T05:28:13.305Z,90.70
2023-03-20T05:31:17.855Z,90.80
2023-03-20T05:34:21.252Z,90.90
2023-03-20T05:37:24.415Z,90.90
2023-03-20T05:40:27.588Z,91.00
2023-03-20T05:43:30.759Z,91.00
2023-03-20T05:46:35.482Z,91.00
2023-03-20T05:49:38.688Z,91.00
2023-03-20T05:52:41.919Z,91.00
2023-03-20T05:55:45.752Z,91.20
2023-03-20T05:58:48.955Z,90.90
2023-03-20T06:01:53.488Z,91.00
2023-03-20T06:04:56.653Z,91.00
2023-03-20T06:07:59.803Z,91.00
2023-03-20T06:11:04.062Z,90.90
2023-03-20T06:14:07.512Z,90.80
2023-03-20T06:17:12.070Z,90.80
2023-03-20T06:20:15.616Z,90.70
2023-03-20T06:23:18.774Z,90.70
2023-03-20T06:26:22.194Z,90.70
2023-03-20T06:29:25.423Z,90.60
2023-03-20T06:32:29.957Z,90.50
2023-03-20T06:35:33.945Z,90.40
2023-03-20T06:38:37.615Z,90.10
2023-03-20T06:41:40.714Z,90.20
2023-03-20T06:44:44.816Z,90.20
2023-03-20T06:47:49.600Z,90.10
2023-03-20T06:50:53.737Z,89.80
2023-03-20T06:53:56.884Z,89.40
2023-03-20T06:57:00.327Z,88.80
2023-03-20T07:00:04.817Z,88.00
2023-03-20T07:03:10.233Z,87.00
2023-03-20T07:06:13.489Z,86.30
2023-03-20T07:09:17.625Z,85.60
2023-03-20T07:12:20.937Z,84.30
2023-03-20T07:15:24.777Z,83.40
2023-03-20T07:18:29.712Z,82.20
2023-03-20T07:21:33.233Z,80.60
2023-03-20T07:24:36.672Z,78.80
2023-03-20T07:27:39.854Z,78.10
2023-03-20T07:30:42.995Z,77.90
2023-03-20T07:33:47.654Z,76.50
2023-03-20T07:36:50.964Z,76.40
2023-03-20T07:39:54.107Z,76.60
2023-03-20T07:42:57.287Z,76.90
2023-03-20T07:46:02.811Z,76.80
2023-03-20T07:49:07.441Z,76.50
2023-03-20T07:52:10.732Z,76.70
2023-03-20T07:55:13.904Z,76.80
2023-03-20T07:58:17.100Z,76.50
2023-03-20T08:01:20.452Z,75.90
2023-03-20T08:04:25.008Z,74.90
2023-03-20T08:07:29.647Z,73.80
2023-03-20T08:10:33.078Z,72.10
2023-03-20T08:13:36.247Z,69.70
2023-03-20T08:16:39.473Z,68.00
2023-03-20T08:19:44.026Z,66.20
2023-03-20T08:22:47.230Z,63.70
2023-03-20T08:25:50.994Z,61.90
2023-03-20T08:28:54.174Z,60.20
2023-03-20T08:31:57.880Z,57.30
2023-03-20T08:35:02.621Z,52.70
2023-03-20T08:38:05.931Z,50.00
2023-03-20T08:41:09.694Z,49.80
2023-03-20T08:44:13.504Z,49.90
2023-03-20T08:47:16.698Z,50.30
2023-03-20T08:50:21.637Z,50.70
2023-03-20T08:53:24.950Z,50.60
2023-03-20T08:56:28.185Z,50.20
2023-03-20T08:59:33.113Z,51.10
2023-03-20T09:02:38.435Z,51.10
2023-03-20T09:05:43.207Z,50.70
2023-03-20T09:08:46.382Z,50.60
2023-03-20T09:11:49.589Z,49.80
2023-03-20T09:14:52.763Z,46.00
2023-03-20T09:17:56.204Z,40.10
2023-03-20T09:21:01.231Z,37.30
2023-03-20T09:24:04.495Z,35.40
2023-03-20T09:27:07.722Z,35.80
2023-03-20T09:30:12.908Z,36.80
2023-03-20T09:33:16.126Z,38.00
2023-03-20T09:36:20.931Z,39.20
2023-03-20T09:39:24.213Z,37.10
2023-03-20T09:42:42.911Z,35.50
2023-03-20T09:45:53.142Z,32.80
2023-03-20T09:49:03.518Z,32.20
2023-03-20T09:52:23.634Z,32.80
2023-03-20T09:55:34.244Z,32.40
2023-03-20T09:58:40.123Z,29.60
2023-03-20T10:01:49.546Z,29.50
2023-03-20T10:04:55.515Z,30.40
2023-03-20T10:08:02.716Z,31.50
2023-03-20T10:11:23.007Z,31.70
2023-03-20T10:14:32.726Z,31.20
2023-03-20T10:17:49.342Z,31.40
2023-03-20T10:20:59.156Z,32.10
2023-03-20T10:24:05.923Z,33.60
2023-03-20T10:27:18.983Z,35.00
2023-03-20T10:30:38.647Z,36.20
2023-03-20T10:33:56.043Z,37.60
2023-03-20T10:37:15.430Z,38.00
2023-03-20T10:40:30.374Z,38.50
2023-03-20T10:43:39.420Z,39.50
2023-03-20T10:46:46.004Z,40.00
2023-03-20T10:49:54.209Z,40.50
2023-03-20T10:52:58.501Z,40.90
2023-03-20T10:56:07.321Z,41.00
2023-03-20T10:59:18.545Z,41.20
2023-03-20T11:02:23.329Z,41.20
2023-03-20T11:05:31.716Z,41.60
2023-03-20T11:08:38.183Z,41.70
2023-03-20T11:11:44.700Z,40.80
2023-03-20T11:14:47.872Z,40.70
2023-03-20T11:17:56.140Z,41.40
2023-03-20T11:20:59.598Z,41.80
2023-03-20T11:24:03.123Z,41.40
2023-03-20T11:27:11.517Z,41.70
2023-03-20T11:30:18.461Z,42.00
2023-03-20T11:33:21.740Z,42.50
2023-03-20T11:36:28.247Z,42.70
2023-03-20T11:39:34.059Z,42.90
2023-03-20T11:42:38.665Z,43.20
2023-03-20T11:45:44.013Z,43.40
2023-03-20T11:48:48.274Z,43.70
2023-03-20T11:51:51.605Z,43.80
2023-03-20T11:54:57.943Z,43.40
2023-03-20T11:58:05.080Z,43.20
2023-03-20T12:01:13.081Z,43.40
2023-03-20T12:04:19.256Z,43.50
2023-03-20T12:07:27.841Z,44.00
2023-03-20T12:10:37.208Z,44.00
2023-03-20T12:13:47.309Z,44.50
2023-03-20T12:16:53.282Z,44.40
2023-03-20T12:20:02.565Z,44.80
2023-03-20T12:23:14.382Z,45.40
2023-03-20T12:26:22.471Z,46.30
2023-03-20T12:29:31.652Z,47.00
2023-03-20T12:32:42.078Z,47.00
2023-03-20T12:35:50.160Z,47.40
2023-03-20T12:38:53.456Z,47.70
2023-03-20T12:42:15.376Z,47.90
2023-03-20T12:45:22.626Z,46.50
2023-03-20T12:48:44.644Z,46.50
2023-03-20T12:51:59.698Z,45.60
2023-03-20T12:55:16.761Z,45.50
2023-03-20T12:58:28.331Z,45.40
2023-03-20T13:01:37.220Z,45.40
2023-03-20T13:04:52.580Z,44.90
2023-03-20T13:08:11.935Z,44.60
2023-03-20T13:11:20.438Z,44.30
2023-03-20T13:14:29.390Z,44.70
2023-03-20T13:17:38.722Z,45.00
2023-03-20T13:20:51.186Z,44.90
2023-03-20T13:24:03.756Z,44.50
2023-03-20T13:27:22.340Z,44.60
2023-03-20T13:30:33.372Z,44.60
2023-03-20T13:33:48.603Z,44.40
2023-03-20T13:37:19.973Z,44.40
2023-03-20T13:40:28.379Z,44.20
2023-03-20T13:43:35.777Z,43.90
2023-03-20T13:46:44.624Z,43.50
2023-03-20T13:49:57.394Z,43.20
2023-03-20T13:53:10.470Z,43.00
2023-03-20T13:56:23.601Z,43.30
2023-03-20T13:59:41.518Z,43.20
2023-03-20T14:03:03.255Z,42.70
2023-03-20T14:06:20.194Z,42.80
2023-03-20T14:09:29.595Z,42.20
2023-03-20T14:12:34.108Z,42.10
2023-03-20T14:15:39.630Z,41.90
2023-03-20T14:18:44.532Z,41.90
2023-03-20T14:21:52.225Z,41.60
2023-03-20T14:24:58.924Z,41.30
2023-03-20T14:28:09.356Z,41.40
2023-03-20T14:31:21.670Z,41.50
2023-03-20T14:34:25.944Z,41.80
2023-03-20T14:37:37.644Z,42.10
2023-03-20T14:40:49.033Z,42.20
2023-03-20T14:44:09.828Z,42.30
2023-03-20T14:47:23.660Z,42.50
2023-03-20T14:50:33.088Z,42.90
2023-03-20T14:53:37.657Z,43.30
2023-03-20T14:56:40.853Z,43.10
2023-03-20T14:59:44.111Z,43.70
2023-03-20T15:02:49.583Z,44.00
2023-03-20T15:05:59.082Z,44.10
2023-03-20T15:09:08.191Z,44.40
2023-03-20T15:12:15.392Z,44.40
2023-03-20T15:15:27.360Z,44.40
2023-03-20T15:18:30.585Z,44.50
2023-03-20T15:21:35.947Z,44.30
2023-03-20T15:24:40.552Z,44.40
2023-03-20T15:27:44.615Z,44.10
2023-03-20T15:30:49.947Z,44.00
2023-03-20T15:33:53.217Z,44.00
2023-03-20T15:36:59.048Z,44.00
2023-03-20T15:40:12.518Z,44.30
2023-03-20T15:43:20.171Z,44.40
2023-03-20T15:46:27.855Z,44.20
2023-03-20T15:49:33.917Z,44.30
2023-03-20T15:52:42.049Z,44.20
2023-03-20T15:55:51.015Z,44.30
2023-03-20T15:58:56.854Z,44.50
2023-03-20T16:02:02.780Z,44.70
2023-03-20T16:05:10.859Z,44.90
2023-03-20T16:08:15.215Z,45.40
2023-03-20T16:11:21.695Z,46.40
2023-03-20T16:14:27.672Z,47.30
2023-03-20T16:17:31.316Z,47.70
2023-03-20T16:20:38.197Z,48.10
2023-03-20T16:23:43.651Z,48.50
2023-03-20T16:26:51.494Z,48.70
2023-03-20T16:29:56.480Z,49.40
2023-03-20T16:33:02.235Z,49.70
2023-03-20T16:36:06.495Z,50.40
2023-03-20T16:39:17.919Z,50.70
2023-03-20T16:42:26.117Z,50.90
2023-03-20T16:45:32.084Z,51.10
2023-03-20T16:48:37.817Z,51.20
2023-03-20T16:51:45.105Z,51.50
2023-03-20T16:54:48.347Z,51.70
2023-03-20T16:57:57.646Z,51.80
2023-03-20T17:01:03.722Z,52.10
2023-03-20T17:04:19.100Z,52.00
2023-03-20T17:07:25.674Z,52.40
2023-03-20T17:10:30.738Z,52.60
2023-03-20T17:13:35.496Z,52.80
2023-03-20T17:16:40.459Z,53.10
2023-03-20T17:19:43.744Z,53.20
2023-03-20T17:22:47.562Z,53.70
2023-03-20T17:25:53.035Z,53.80
2023-03-20T17:28:57.973Z,54.40
2023-03-20T17:32:01.418Z,54.50
2023-03-20T17:35:05.437Z,54.70
2023-03-20T17:38:17.080Z,54.90
2023-03-20T17:41:21.860Z,55.00
2023-03-20T17:44:28.048Z,55.00
2023-03-20T17:47:32.129Z,55.30
2023-03-20T17:50:37.370Z,55.60
2023-03-20T17:53:41.013Z,55.70
2023-03-20T17:56:44.962Z,55.60
2023-03-20T17:59:51.489Z,55.90
2023-03-20T18:02:55.558Z,56.20
2023-03-20T18:05:58.940Z,56.40
2023-03-20T18:09:02.963Z,56.50
2023-03-20T18:12:07.562Z,56.80
2023-03-20T18:15:14.439Z,57.20
2023-03-20T18:18:23.652Z,57.30
2023-03-20T18:21:28.724Z,57.50
2023-03-20T18:24:33.478Z,58.00
2023-03-20T18:27:37.790Z,57.80
2023-03-20T18:30:44.634Z,57.90
2023-03-20T18:33:50.190Z,58.00
2023-03-20T18:36:54.986Z,58.30
2023-03-20T18:40:01.593Z,58.60
2023-03-20T18:43:06.210Z,58.80
2023-03-20T18:46:16.175Z,59.00
2023-03-20T18:49:23.179Z,58.90
2023-03-20T18:52:28.262Z,59.00
2023-03-20T18:55:34.064Z,59.50
2023-03-20T18:58:39.391Z,59.90
2023-03-20T19:01:46.458Z,60.20
2023-03-20T19:04:54.516Z,60.00
2023-03-20T19:08:01.636Z,59.70
2023-03-20T19:11:10.511Z,60.50
2023-03-20T19:14:16.227Z,60.40
2023-03-20T19:17:22.017Z,60.90
2023-03-20T19:20:36.706Z,61.30
2023-03-20T19:23:41.894Z,61.50
2023-03-20T19:26:48.013Z,61.70
2023-03-20T19:29:52.336Z,62.10
2023-03-20T19:33:06.888Z,62.30
2023-03-20T19:36:26.830Z,62.70
2023-03-20T19:39:32.490Z,63.10
2023-03-20T19:42:59.008Z,63.40
2023-03-20T19:46:03.652Z,63.20
2023-03-20T19:49:20.295Z,63.30
2023-03-20T19:52:34.300Z,63.90
2023-03-20T19:55:39.638Z,64.50
2023-03-20T19:58:43.689Z,64.90
2023-03-20T20:01:48.879Z,65.50
2023-03-20T20:04:55.795Z,66.70
2023-03-20T20:08:24.014Z,66.40
2023-03-20T20:11:25.658Z,67.00
2023-03-20T20:14:30.500Z,67.60
2023-03-20T20:17:35.371Z,68.10
2023-03-20T20:21:22.270Z,68.80
2023-03-20T20:24:07.939Z,69.50
2023-03-20T20:27:18.214Z,70.10
2023-03-20T20:30:24.514Z,71.10
2023-03-20T20:33:29.609Z,71.80
2023-03-20T20:37:25.658Z,72.50
2023-03-20T20:40:01.135Z,72.80
2023-03-20T20:43:10.483Z,74.10
2023-03-20T20:46:15.095Z,74.40
2023-03-20T20:49:20.156Z,75.20
2023-03-20T20:52:26.023Z,76.40
2023-03-20T20:55:30.289Z,77.10
2023-03-20T20:58:34.401Z,77.70
2023-03-20T21:01:38.869Z,77.90
2023-03-20T21:04:44.740Z,78.90
2023-03-20T21:07:52.635Z,79.50
2023-03-20T21:10:57.115Z,80.20
2023-03-20T21:14:00.880Z,80.50
2023-03-20T21:17:05.383Z,80.80
2023-03-20T21:20:11.099Z,81.20
2023-03-20T21:23:17.602Z,82.00
2023-03-20T21:26:21.631Z,82.50
2023-03-20T21:29:26.077Z,82.90
2023-03-20T21:32:32.590Z,83.00
2023-03-20T21:35:38.315Z,83.50
2023-03-20T21:42:06.192Z,83.90
2023-03-20T21:46:09.859Z,84.40
2023-03-20T21:49:24.130Z,84.80
2023-03-20T21:59:29.320Z,85.90
2023-03-20T22:02:19.303Z,85.90
2023-03-20T22:06:02.374Z,86.00
2023-03-20T22:23:15.285Z,86.40
2023-03-20T22:27:01.696Z,86.50
2023-03-20T22:30:04.700Z,86.60
2023-03-20T22:33:41.055Z,87.10
2023-03-20T22:43:51.065Z,87.50
2023-03-20T22:46:44.675Z,87.40
2023-03-20T22:49:44.716Z,87.70
2023-03-20T22:52:49.764Z,88.20
2023-03-20T22:55:53.789Z,88.30
2023-03-20T22:58:56.966Z,88.70
2023-03-20T23:02:01.531Z,89.00
2023-03-20T23:05:05.068Z,89.30
2023-03-20T23:08:09.577Z,89.30
2023-03-20T23:11:12.949Z,89.20
2023-03-20T23:14:23.658Z,89.80
2023-03-20T23:17:29.444Z,89.60
2023-03-20T23:20:32.788Z,89.80
2023-03-20T23:23:35.953Z,89.90
2023-03-20T23:26:39.159Z,90.10
2023-03-20T23:29:42.314Z,90.20
2023-03-20T23:32:47.145Z,90.40
2023-03-20T23:35:51.432Z,90.40
2023-03-20T23:38:56.330Z,90.50
2023-03-20T23:42:10.218Z,90.50
2023-03-20T23:45:20.587Z,90.50
2023-03-20T23:48:28.148Z,90.60
2023-03-20T23:51:31.405Z,90.60
2023-03-20T23:54:34.579Z,90.70
2023-03-20T23:57:37.691Z,91.00
